Time;durP1;ratioP1;P1;durP2;ratioP2;P2;SDS_P1;SDS_P2;PMS_P1;PMS_P2;Temp;Humidity;BMP_temperature;BMP_pressure;BME280_temperature;BME280_humidity;BME280_pressure;Samples;Min_cycle;Max_cycle;Signal;HPM_P1;HPM_P2
2021/10/08 00:00:45;;;;;;;1.70;1.60;;;13.60;1.00;;;;;;4901497;29;20469;-79
2021/10/08 00:03:14;;;;;;;2.20;2.00;;;13.60;1.00;;;;;;4898761;29;20485;-78
2021/10/08 00:05:43;;;;;;;2.03;1.70;;;13.60;1.00;;;;;;4901790;29;20458;-78
2021/10/08 00:08:11;;;;;;;1.63;1.53;;;13.60;1.00;;;;;;4904672;29;20472;-78
2021/10/08 00:10:39;;;;;;;2.50;2.30;;;13.70;1.00;;;;;;4903539;29;21015;-78
2021/10/08 00:13:07;;;;;;;3.20;1.70;;;13.60;1.00;;;;;;4906402;29;20462;-77
2021/10/08 00:15:37;;;;;;;3.50;2.07;;;13.60;1.00;;;;;;4903585;29;21175;-77
2021/10/08 00:18:05;;;;;;;2.63;1.60;;;13.60;1.00;;;;;;4903091;29;20536;-80
2021/10/08 00:20:33;;;;;;;4.03;1.97;;;13.60;1.00;;;;;;4903730;29;20518;-79
2021/10/08 00:23:02;;;;;;;2.23;2.03;;;13.60;1.00;;;;;;4904758;29;20458;-77
2021/10/08 00:25:30;;;;;;;3.47;2.80;;;13.60;1.00;;;;;;4900156;29;23962;-78
2021/10/08 00:27:59;;;;;;;2.33;1.80;;;13.60;1.00;;;;;;4904793;29;20518;-78
2021/10/08 00:30:27;;;;;;;3.00;2.20;;;13.60;1.00;;;;;;4904124;29;20518;-78
2021/10/08 00:32:57;;;;;;;2.33;2.10;;;13.60;1.00;;;;;;4904494;29;20949;-77
2021/10/08 00:35:25;;;;;;;2.10;1.97;;;13.50;1.00;;;;;;4903598;29;20512;-79
2021/10/08 00:37:54;;;;;;;2.27;2.07;;;13.50;1.00;;;;;;4897710;29;20842;-80
2021/10/08 00:40:23;;;;;;;2.90;2.70;;;13.40;1.00;;;;;;4902451;29;20450;-78
2021/10/08 00:42:51;;;;;;;3.47;2.90;;;13.40;1.00;;;;;;4905156;29;20465;-79
2021/10/08 00:45:19;;;;;;;2.40;2.20;;;13.40;1.00;;;;;;4902830;29;21191;-79
2021/10/08 00:47:57;;;;;;;2.40;2.20;;;13.40;1.00;;;;;;4904268;29;20917;-79
2021/10/08 00:50:27;;;;;;;2.00;1.90;;;13.40;1.00;;;;;;4903950;29;20867;-79
2021/10/08 00:52:55;;;;;;;3.00;2.00;;;13.40;1.00;;;;;;4903682;29;20473;-75
2021/10/08 00:55:23;;;;;;;4.47;2.63;;;13.40;1.00;;;;;;4892166;29;21007;-76
2021/10/08 00:57:51;;;;;;;1.80;1.63;;;13.30;1.00;;;;;;4901022;29;20965;-79
2021/10/08 01:00:20;;;;;;;2.40;2.10;;;13.40;99.90;;;;;;4904239;29;20457;-78
2021/10/08 01:02:48;;;;;;;3.50;2.23;;;13.30;99.90;;;;;;4889379;29;20733;-78
2021/10/08 01:05:18;;;;;;;2.27;2.13;;;13.30;99.90;;;;;;4901751;29;21026;-77
2021/10/08 01:07:46;;;;;;;2.70;2.27;;;13.30;99.90;;;;;;4906488;29;20480;-76
2021/10/08 01:10:14;;;;;;;2.43;2.23;;;13.30;99.90;;;;;;4907997;29;20465;-78
2021/10/08 01:12:42;;;;;;;2.00;1.80;;;13.30;99.90;;;;;;4894282;29;20970;-77
2021/10/08 01:15:10;;;;;;;2.27;2.07;;;13.30;99.90;;;;;;4899972;29;20533;-78
2021/10/08 01:17:39;;;;;;;1.87;1.77;;;13.30;99.90;;;;;;4905962;29;21477;-80
2021/10/08 01:20:10;;;;;;;1.73;1.60;;;13.30;99.90;;;;;;4907065;29;20954;-80
2021/10/08 01:22:38;;;;;;;1.73;1.63;;;13.20;99.90;;;;;;4906465;29;20460;-78
2021/10/08 01:25:08;;;;;;;2.10;1.90;;;13.20;99.90;;;;;;4908441;29;20503;-76
2021/10/08 01:27:36;;;;;;;3.00;2.37;;;13.10;99.90;;;;;;4903635;29;20536;-77
2021/10/08 01:30:07;;;;;;;1.73;1.60;;;13.10;99.90;;;;;;4902725;29;20468;-79
2021/10/08 01:32:36;;;;;;;1.70;1.60;;;13.10;99.90;;;;;;4899111;29;20459;-79
2021/10/08 01:35:06;;;;;;;2.17;1.77;;;13.10;99.90;;;;;;4903518;29;20492;-78
2021/10/08 01:37:35;;;;;;;2.43;2.10;;;13.10;99.90;;;;;;4907292;29;20457;-80
2021/10/08 01:40:05;;;;;;;5.47;1.63;;;13.10;99.90;;;;;;4907731;29;20541;-78
2021/10/08 01:42:33;;;;;;;2.17;2.00;;;13.10;99.90;;;;;;4907056;29;20481;-80
2021/10/08 01:45:01;;;;;;;1.90;1.80;;;13.00;99.90;;;;;;4907522;29;20481;-78
2021/10/08 01:47:30;;;;;;;1.90;1.80;;;13.00;99.90;;;;;;4905921;29;20458;-80
2021/10/08 01:49:58;;;;;;;2.10;1.90;;;13.00;99.90;;;;;;4907185;29;20485;-80
2021/10/08 01:52:26;;;;;;;2.10;1.90;;;13.00;99.90;;;;;;4903110;29;20465;-78
2021/10/08 01:54:56;;;;;;;2.10;1.80;;;13.00;99.90;;;;;;4907129;29;20478;-79
2021/10/08 01:57:25;;;;;;;2.53;2.33;;;13.00;99.90;;;;;;4906948;29;20461;-78
2021/10/08 01:59:54;;;;;;;2.13;1.93;;;13.10;99.90;;;;;;4907427;29;20457;-78
2021/10/08 02:02:22;;;;;;;1.90;1.80;;;13.00;99.90;;;;;;4904519;29;20481;-77
2021/10/08 02:04:50;;;;;;;2.03;1.80;;;13.00;99.90;;;;;;4906127;29;20486;-79
2021/10/08 02:07:18;;;;;;;2.50;2.10;;;13.00;99.90;;;;;;4906899;29;21000;-79
2021/10/08 02:09:47;;;;;;;2.87;1.90;;;13.00;99.90;;;;;;4907683;29;21355;-79
2021/10/08 02:12:16;;;;;;;2.37;2.00;;;13.00;99.90;;;;;;4905422;29;20454;-78
2021/10/08 02:14:44;;;;;;;3.40;1.93;;;13.00;99.90;;;;;;4907043;29;20540;-79
2021/10/08 02:17:12;;;;;;;2.50;1.93;;;13.00;99.90;;;;;;4906050;29;20466;-78
2021/10/08 02:19:40;;;;;;;3.40;2.17;;;13.00;99.90;;;;;;4902105;29;21049;-79
2021/10/08 02:22:09;;;;;;;2.50;2.30;;;12.90;99.90;;;;;;4906313;29;20549;-80
2021/10/08 02:24:37;;;;;;;2.80;2.57;;;12.90;99.90;;;;;;4903392;29;20510;-79
2021/10/08 02:27:05;;;;;;;2.13;1.97;;;12.90;99.90;;;;;;4901712;29;20459;-79
2021/10/08 02:29:35;;;;;;;2.77;2.37;;;12.90;99.90;;;;;;4901684;29;20454;-78
2021/10/08 02:32:03;;;;;;;1.90;1.80;;;12.80;99.90;;;;;;4902866;29;20467;-77
2021/10/08 02:34:31;;;;;;;4.67;2.40;;;12.90;99.90;;;;;;4903832;29;20489;-77
2021/10/08 02:36:59;;;;;;;4.63;4.23;;;12.80;99.90;;;;;;4903813;29;20500;-79
2021/10/08 02:39:27;;;;;;;2.67;2.27;;;12.70;99.90;;;;;;4904284;29;21023;-79
2021/10/08 02:41:56;;;;;;;3.23;1.93;;;12.80;99.90;;;;;;4904516;29;20469;-82
2021/10/08 02:44:24;;;;;;;2.90;2.60;;;12.70;99.90;;;;;;4903658;29;20485;-82
2021/10/08 02:46:53;;;;;;;2.83;2.53;;;12.70;99.90;;;;;;4904668;29;20466;-83
2021/10/08 02:49:22;;;;;;;3.53;2.03;;;12.70;99.90;;;;;;4901374;29;20475;-81
2021/10/08 02:51:51;;;;;;;4.00;2.93;;;12.70;99.90;;;;;;4907265;29;20472;-82
2021/10/08 02:54:20;;;;;;;2.57;2.37;;;12.60;99.90;;;;;;4906043;29;20937;-82
2021/10/08 02:56:48;;;;;;;2.90;2.53;;;12.60;99.90;;;;;;4901686;29;20478;-82
2021/10/08 02:59:16;;;;;;;4.70;3.20;;;12.60;99.90;;;;;;4905821;29;20926;-81
2021/10/08 03:01:44;;;;;;;3.03;2.73;;;12.60;99.90;;;;;;4904538;29;20477;-79
2021/10/08 03:04:14;;;;;;;2.77;2.50;;;12.60;99.90;;;;;;4893797;29;20494;-81
2021/10/08 03:06:42;;;;;;;3.50;3.20;;;12.60;99.90;;;;;;4907018;29;20492;-82
2021/10/08 03:09:10;;;;;;;2.60;2.40;;;12.60;99.90;;;;;;4918992;29;20469;-81
2021/10/08 03:11:39;;;;;;;3.33;3.03;;;12.60;99.90;;;;;;4906276;29;20469;-80
2021/10/08 03:14:07;;;;;;;3.77;2.87;;;12.60;99.90;;;;;;4905255;29;20497;-81
2021/10/08 03:16:35;;;;;;;2.87;2.60;;;12.60;99.90;;;;;;4906778;29;20518;-82
2021/10/08 03:19:03;;;;;;;3.33;2.77;;;12.60;99.90;;;;;;4906237;29;20819;-81
2021/10/08 03:21:33;;;;;;;3.50;3.17;;;12.60;99.90;;;;;;4907489;29;20479;-83
2021/10/08 03:24:01;;;;;;;3.40;2.73;;;12.50;99.90;;;;;;4906859;29;20470;-82
2021/10/08 03:26:29;;;;;;;3.30;2.93;;;12.50;99.90;;;;;;4908128;29;20489;-81
2021/10/08 03:28:58;;;;;;;2.70;2.50;;;12.50;99.90;;;;;;4906366;29;20474;-83
2021/10/08 03:31:26;;;;;;;3.70;3.40;;;12.50;99.90;;;;;;4905383;29;20615;-79
2021/10/08 03:33:54;;;;;;;3.33;3.03;;;12.30;99.90;;;;;;4908555;29;20489;-83
2021/10/08 03:36:26;;;;;;;3.57;2.67;;;12.40;99.90;;;;;;4906578;29;20563;-82
2021/10/08 03:38:57;;;;;;;3.43;2.30;;;12.40;99.90;;;;;;4907913;29;20503;-82
2021/10/08 03:41:26;;;;;;;3.17;2.87;;;12.40;99.90;;;;;;4907605;29;20453;-79
2021/10/08 03:43:55;;;;;;;2.97;2.77;;;12.40;99.90;;;;;;4905331;29;20842;-79
2021/10/08 03:46:28;;;;;;;2.87;2.30;;;12.40;99.90;;;;;;4900773;29;20485;-81
2021/10/08 03:49:15;;;;;;;2.50;2.30;;;12.40;99.90;;;;;;4903889;29;21246;-82
2021/10/08 03:51:45;;;;;;;3.30;3.00;;;12.30;99.90;;;;;;4905910;29;20468;-81
2021/10/08 03:54:16;;;;;;;2.53;1.97;;;12.30;99.90;;;;;;4906682;29;20480;-80
2021/10/08 03:56:44;;;;;;;2.77;2.40;;;12.30;99.90;;;;;;4905655;29;20608;-81
2021/10/08 03:59:14;;;;;;;3.87;2.40;;;12.30;99.90;;;;;;4904536;29;21209;-80
2021/10/08 04:01:45;;;;;;;3.20;2.90;;;12.30;99.90;;;;;;4901687;29;21131;-82
2021/10/08 04:04:13;;;;;;;3.80;2.90;;;12.30;99.90;;;;;;4895285;29;20509;-81
2021/10/08 04:06:41;;;;;;;4.20;3.20;;;12.30;99.90;;;;;;4892796;29;20493;-80
2021/10/08 04:09:10;;;;;;;4.03;3.27;;;12.30;99.90;;;;;;4906126;29;20465;-80
2021/10/08 04:11:39;;;;;;;5.07;4.67;;;12.30;99.90;;;;;;4909928;29;21016;-83
2021/10/08 04:14:08;;;;;;;4.33;3.60;;;12.30;99.90;;;;;;4911647;29;20470;-84
2021/10/08 04:16:37;;;;;;;5.87;4.07;;;12.30;99.90;;;;;;4912063;29;20461;-83
2021/10/08 04:19:06;;;;;;;4.37;3.30;;;12.30;99.90;;;;;;4911144;29;21032;-80
2021/10/08 04:21:34;;;;;;;4.00;3.27;;;12.30;99.90;;;;;;4909235;29;20465;-82
2021/10/08 04:24:03;;;;;;;5.17;3.87;;;12.30;99.90;;;;;;4909900;29;20484;-79
2021/10/08 04:26:31;;;;;;;5.67;3.70;;;12.30;99.90;;;;;;4909625;29;20520;-83
2021/10/08 04:29:01;;;;;;;5.10;4.30;;;12.30;99.90;;;;;;4906372;29;20489;-78
2021/10/08 04:31:29;;;;;;;6.10;4.40;;;12.50;99.90;;;;;;4919775;29;20471;-83
2021/10/08 04:33:57;;;;;;;7.67;4.80;;;12.30;99.90;;;;;;4907935;29;20522;-81
2021/10/08 04:36:25;;;;;;;4.13;3.77;;;12.30;99.90;;;;;;4899360;29;20472;-80
2021/10/08 04:38:53;;;;;;;7.37;5.10;;;11.90;99.90;;;;;;4905631;29;20982;-79
2021/10/08 04:41:21;;;;;;;5.70;4.53;;;11.70;1.00;;;;;;4911521;29;20461;-79
2021/10/08 04:43:49;;;;;;;4.43;4.03;;;11.80;1.00;;;;;;4914669;29;20492;-80
2021/10/08 04:46:19;;;;;;;3.60;3.30;;;12.00;1.00;;;;;;4903707;29;20500;-81
2021/10/08 04:48:47;;;;;;;8.83;3.83;;;12.10;99.90;;;;;;4913915;29;20466;-80
2021/10/08 04:51:15;;;;;;;3.67;3.27;;;12.10;99.90;;;;;;4924436;29;21304;-80
2021/10/08 04:53:43;;;;;;;4.90;4.13;;;12.10;99.90;;;;;;4906476;29;21177;-82
2021/10/08 04:56:12;;;;;;;4.57;3.70;;;12.20;99.90;;;;;;4912381;29;20462;-80
2021/10/08 04:58:40;;;;;;;3.40;2.90;;;12.20;99.90;;;;;;4914975;29;20471;-83
2021/10/08 05:01:08;;;;;;;6.30;4.00;;;12.10;99.90;;;;;;4908399;29;20969;-83
2021/10/08 05:03:37;;;;;;;4.53;3.73;;;12.10;99.90;;;;;;4912223;29;20482;-79
2021/10/08 05:06:06;;;;;;;5.10;4.27;;;12.10;99.90;;;;;;4912879;29;20492;-81
2021/10/08 05:08:34;;;;;;;4.23;3.80;;;12.10;99.90;;;;;;4914317;29;20943;-81
2021/10/08 05:11:02;;;;;;;3.50;3.20;;;12.00;99.90;;;;;;4895262;29;20469;-78
2021/10/08 05:13:30;;;;;;;4.53;3.83;;;12.00;99.90;;;;;;4910383;29;20493;-80
2021/10/08 05:15:58;;;;;;;3.90;3.47;;;12.00;99.90;;;;;;4901839;29;20456;-81
2021/10/08 05:18:26;;;;;;;3.87;3.37;;;12.00;99.90;;;;;;4905206;29;20492;-79
2021/10/08 05:20:56;;;;;;;5.57;4.20;;;12.00;99.90;;;;;;4897371;29;20468;-80
2021/10/08 05:23:24;;;;;;;4.50;3.60;;;12.00;99.90;;;;;;4905539;29;20463;-80
2021/10/08 05:25:52;;;;;;;5.40;4.70;;;11.90;99.90;;;;;;4906648;29;20480;-80
2021/10/08 05:28:20;;;;;;;4.47;3.37;;;12.00;99.90;;;;;;4902780;29;20489;-79
2021/10/08 05:30:48;;;;;;;5.67;5.13;;;12.00;99.90;;;;;;4903036;29;20469;-81
2021/10/08 05:33:17;;;;;;;5.90;3.90;;;11.90;99.90;;;;;;4906402;29;20453;-81
2021/10/08 05:35:45;;;;;;;6.80;3.90;;;12.00;99.90;;;;;;4909486;29;20477;-81
2021/10/08 05:38:15;;;;;;;7.93;4.97;;;12.20;99.90;;;;;;4907274;29;20497;-81
2021/10/08 05:40:43;;;;;;;5.40;4.50;;;12.00;99.90;;;;;;4910563;29;20479;-82
2021/10/08 05:43:11;;;;;;;4.77;4.20;;;11.90;99.90;;;;;;4906964;29;20980;-80
2021/10/08 05:45:39;;;;;;;4.97;4.23;;;12.00;99.90;;;;;;4901394;29;20461;-82
2021/10/08 05:48:08;;;;;;;5.60;4.70;;;11.90;99.90;;;;;;4915240;29;20814;-83
2021/10/08 05:50:37;;;;;;;4.70;4.00;;;11.90;99.90;;;;;;4896196;29;20488;-80
2021/10/08 05:53:07;;;;;;;8.10;5.67;;;11.90;99.90;;;;;;4907942;29;20529;-79
2021/10/08 05:55:37;;;;;;;6.00;4.50;;;11.90;99.90;;;;;;4906711;29;20509;-81
2021/10/08 05:58:06;;;;;;;5.90;4.90;;;11.90;99.90;;;;;;4907876;29;20469;-81
2021/10/08 06:00:35;;;;;;;5.67;4.50;;;11.90;99.90;;;;;;4906019;29;20479;-79
2021/10/08 06:03:06;;;;;;;5.20;4.43;;;11.90;99.90;;;;;;4906047;29;21112;-79
2021/10/08 06:05:36;;;;;;;5.47;4.97;;;11.90;99.90;;;;;;4904679;29;20482;-80
2021/10/08 06:08:05;;;;;;;5.67;4.83;;;11.90;99.90;;;;;;4906411;29;20232;-81
2021/10/08 06:10:39;;;;;;;7.83;5.53;;;12.00;99.90;;;;;;4908113;29;20482;-80
2021/10/08 06:13:08;;;;;;;6.70;5.03;;;12.00;99.90;;;;;;4904487;29;20509;-78
2021/10/08 06:15:37;;;;;;;5.43;4.60;;;12.00;99.90;;;;;;4900700;29;20456;-79
2021/10/08 06:18:05;;;;;;;6.40;5.30;;;12.00;99.90;;;;;;4902232;29;20454;-80
2021/10/08 06:20:34;;;;;;;9.00;5.60;;;12.00;99.90;;;;;;4903064;29;20550;-80
2021/10/08 06:23:02;;;;;;;5.83;5.07;;;12.00;99.90;;;;;;4919623;29;20978;-80
2021/10/08 06:25:30;;;;;;;5.60;5.03;;;12.00;1.00;;;;;;4902002;29;20522;-83
2021/10/08 06:28:00;;;;;;;6.30;5.50;;;12.00;1.00;;;;;;4904448;29;20501;-81
2021/10/08 06:30:29;;;;;;;6.00;4.97;;;12.00;1.00;;;;;;4904545;29;20821;-81
2021/10/08 06:32:57;;;;;;;6.53;4.43;;;12.00;1.00;;;;;;4906920;29;20494;-82
2021/10/08 06:35:25;;;;;;;4.93;4.43;;;12.00;1.00;;;;;;4904196;29;20934;-80
2021/10/08 06:37:54;;;;;;;6.70;5.50;;;12.10;1.00;;;;;;4907086;29;21001;-80
2021/10/08 06:40:22;;;;;;;7.43;5.37;;;12.10;1.00;;;;;;4903609;29;20487;-80
2021/10/08 06:42:50;;;;;;;7.10;5.07;;;12.20;1.00;;;;;;4904863;29;20470;-82
2021/10/08 06:45:21;;;;;;;5.83;4.80;;;12.20;1.00;;;;;;4906367;29;20488;-82
2021/10/08 06:47:49;;;;;;;8.00;5.67;;;12.30;1.00;;;;;;4906237;29;20473;-81
2021/10/08 06:50:17;;;;;;;5.63;5.03;;;12.30;1.00;;;;;;4898727;29;20457;-80
2021/10/08 06:52:45;;;;;;;7.20;5.67;;;12.40;1.00;;;;;;4898572;29;20469;-82
2021/10/08 06:55:13;;;;;;;6.50;5.70;;;12.40;1.00;;;;;;4903448;29;20489;-82
2021/10/08 06:57:44;;;;;;;6.10;5.50;;;12.40;1.00;;;;;;4900153;29;20485;-80
2021/10/08 07:00:13;;;;;;;7.50;5.50;;;12.50;9.70;;;;;;4905170;29;20462;-81
2021/10/08 07:02:51;;;;;;;7.37;6.00;;;12.50;19.00;;;;;;4903017;29;20450;-81
2021/10/08 07:05:21;;;;;;;6.80;6.20;;;12.60;39.30;;;;;;4905798;29;20647;-80
2021/10/08 07:07:49;;;;;;;7.37;5.63;;;12.60;92.90;;;;;;4903049;29;20992;-79
2021/10/08 07:10:18;;;;;;;11.77;5.70;;;12.70;99.90;;;;;;4905193;29;20476;-81
2021/10/08 07:12:46;;;;;;;7.43;6.72;;;12.80;99.90;;;;;;4902395;29;20970;-81
2021/10/08 07:15:18;;;;;;;10.73;6.07;;;12.80;99.90;;;;;;4898661;29;20218;-80
2021/10/08 07:17:50;;;;;;;6.47;5.70;;;12.90;99.90;;;;;;4912960;29;20474;-80
2021/10/08 07:20:20;;;;;;;7.13;4.93;;;12.90;99.90;;;;;;4902529;29;20635;-80
2021/10/08 07:22:49;;;;;;;5.90;4.90;;;13.00;99.90;;;;;;4904890;29;20464;-80
2021/10/08 07:25:17;;;;;;;6.00;5.40;;;13.00;99.90;;;;;;4904193;29;20568;-82
2021/10/08 07:27:47;;;;;;;13.63;7.13;;;13.10;99.90;;;;;;4908886;29;20496;-83
2021/10/08 07:30:17;;;;;;;9.13;6.80;;;13.20;99.90;;;;;;4896221;29;20454;-81
2021/10/08 07:32:46;;;;;;;6.00;5.10;;;13.20;99.90;;;;;;4906030;29;20677;-79
2021/10/08 07:35:17;;;;;;;5.50;5.00;;;13.40;99.90;;;;;;4903800;29;20512;-80
2021/10/08 07:37:45;;;;;;;5.93;5.33;;;13.50;99.90;;;;;;4905649;29;20666;-79
2021/10/08 07:40:14;;;;;;;6.90;4.60;;;13.60;99.90;;;;;;4898400;29;20489;-81
2021/10/08 07:42:43;;;;;;;6.43;5.50;;;13.70;99.90;;;;;;4901556;29;20470;-81
2021/10/08 07:45:13;;;;;;;5.60;4.93;;;13.90;99.90;;;;;;4907051;29;20483;-82
2021/10/08 07:47:41;;;;;;;5.33;4.83;;;14.10;99.90;;;;;;4899050;29;20482;-81
2021/10/08 07:50:10;;;;;;;9.40;5.83;;;14.40;1.00;;;;;;4901363;29;20562;-81
2021/10/08 07:52:40;;;;;;;6.50;5.43;;;14.60;1.00;;;;;;4904137;29;20457;-80
2021/10/08 07:55:11;;;;;;;6.30;5.47;;;14.80;1.00;;;;;;4904314;29;21119;-80
2021/10/08 07:57:40;;;;;;;5.93;4.50;;;15.10;1.00;;;;;;4903790;29;20470;-83
2021/10/08 08:00:11;;;;;;;5.60;5.10;;;15.20;1.00;;;;;;4900094;29;20456;-80
2021/10/08 08:02:39;;;;;;;6.90;4.83;;;15.50;1.00;;;;;;4906239;29;20464;-82
2021/10/08 08:05:08;;;;;;;5.00;4.50;;;15.70;1.00;;;;;;4903017;29;21012;-82
2021/10/08 08:07:36;;;;;;;5.83;4.10;;;15.90;1.00;;;;;;4902939;29;20895;-81
2021/10/08 08:10:09;;;;;;;5.33;4.47;;;16.10;99.90;;;;;;4905871;29;20462;-81
2021/10/08 08:12:38;;;;;;;5.03;4.63;;;16.30;99.90;;;;;;4901902;29;20835;-82
2021/10/08 08:15:08;;;;;;;5.90;4.80;;;16.60;99.90;;;;;;4898466;29;20472;-78
2021/10/08 08:17:36;;;;;;;5.37;4.47;;;16.80;99.90;;;;;;4906618;29;20230;-81
2021/10/08 08:20:07;;;;;;;7.13;4.87;;;16.90;99.90;;;;;;4906735;29;21247;-81
2021/10/08 08:22:35;;;;;;;4.30;3.80;;;17.10;99.90;;;;;;4908087;29;20466;-83
2021/10/08 08:25:04;;;;;;;3.93;3.63;;;17.30;99.90;;;;;;4907783;29;20485;-83
2021/10/08 08:27:33;;;;;;;3.70;3.40;;;17.50;99.90;;;;;;4908171;29;20465;-82
2021/10/08 08:30:03;;;;;;;4.00;3.70;;;17.60;99.90;;;;;;4901727;29;20460;-81
2021/10/08 08:32:32;;;;;;;4.90;3.93;;;17.80;99.90;;;;;;4908688;29;20465;-82
2021/10/08 08:35:00;;;;;;;6.63;3.83;;;17.90;99.90;;;;;;4902285;29;20864;-82
2021/10/08 08:37:28;;;;;;;3.20;2.90;;;18.10;99.90;;;;;;4904298;29;20559;-82
2021/10/08 08:39:59;;;;;;;3.90;3.60;;;18.20;99.90;;;;;;4903857;29;20484;-82
2021/10/08 08:42:28;;;;;;;5.20;4.73;;;18.40;99.90;;;;;;4902026;29;20967;-81
2021/10/08 08:44:57;;;;;;;3.70;3.40;;;18.50;99.90;;;;;;4908188;29;20473;-79
2021/10/08 08:47:26;;;;;;;3.53;3.23;;;18.20;99.90;;;;;;4908789;29;20469;-81
2021/10/08 08:49:54;;;;;;;3.90;3.20;;;18.20;99.90;;;;;;4911378;29;20495;-82
2021/10/08 08:52:22;;;;;;;4.60;4.10;;;18.10;99.90;;;;;;4908217;29;20539;-82
2021/10/08 08:54:52;;;;;;;3.97;3.60;;;18.10;99.90;;;;;;4902117;29;20480;-84
2021/10/08 08:57:22;;;;;;;3.60;3.30;;;18.00;99.90;;;;;;4909250;29;20799;-81
2021/10/08 09:00:05;;;;;;;5.60;3.37;;;18.00;99.90;;;;;;4907169;29;20465;-82
2021/10/08 09:02:35;;;;;;;5.50;3.83;;;17.90;99.90;;;;;;4903789;29;20473;-80
2021/10/08 09:05:04;;;;;;;5.00;4.20;;;17.80;99.90;;;;;;4906400;29;20857;-81
2021/10/08 09:07:34;;;;;;;5.60;4.67;;;17.80;99.90;;;;;;4904525;29;20896;-81
2021/10/08 09:10:14;;;;;;;4.53;3.80;;;17.70;99.90;;;;;;4908521;29;20477;-81
2021/10/08 09:12:44;;;;;;;5.63;4.10;;;17.80;99.90;;;;;;4908029;29;20474;-84
2021/10/08 09:15:14;;;;;;;8.73;3.40;;;18.00;99.90;;;;;;4908732;29;20477;-81
2021/10/08 09:17:43;;;;;;;5.80;3.37;;;18.10;99.90;;;;;;4909449;29;20525;-82
2021/10/08 09:20:12;;;;;;;5.23;3.83;;;18.10;99.90;;;;;;4912704;29;20462;-83
2021/10/08 09:22:50;;;;;;;5.53;3.40;;;18.20;99.90;;;;;;4914526;29;20461;-83
2021/10/08 09:25:22;;;;;;;5.93;3.73;;;18.10;99.90;;;;;;4901632;29;20491;-84
2021/10/08 09:27:52;;;;;;;3.50;3.20;;;18.00;99.90;;;;;;4906834;29;20457;-81
2021/10/08 09:30:26;;;;;;;3.00;2.77;;;18.00;99.90;;;;;;4910571;29;20850;-85
2021/10/08 09:32:56;;;;;;;5.30;3.93;;;17.80;99.90;;;;;;4911974;29;21042;-81
2021/10/08 09:35:26;;;;;;;5.80;4.10;;;17.70;99.90;;;;;;4912157;29;20552;-83
2021/10/08 09:37:57;;;;;;;3.93;3.50;;;17.70;99.90;;;;;;4902253;29;20466;-83
2021/10/08 09:40:30;;;;;;;3.83;3.30;;;17.70;99.90;;;;;;4922687;29;20460;-82
2021/10/08 09:43:01;;;;;;;7.30;4.80;;;17.70;99.90;;;;;;4898272;29;20469;-82
2021/10/08 09:45:54;;;;;;;5.00;4.37;;;17.50;99.90;;;;;;4902695;29;20825;-79
2021/10/08 09:48:24;;;;;;;4.03;3.40;;;17.50;99.90;;;;;;4923190;29;20469;-81
2021/10/08 09:51:01;;;;;;;5.97;4.50;;;17.40;99.90;;;;;;4897566;29;20471;-81
2021/10/08 09:53:30;;;;;;;6.10;5.50;;;17.30;99.90;;;;;;4906364;29;20515;-84
2021/10/08 09:55:58;;;;;;;5.80;4.47;;;17.20;99.90;;;;;;4904603;29;20464;-82
2021/10/08 09:58:26;;;;;;;5.80;4.90;;;17.10;99.90;;;;;;4907570;29;20473;-81
2021/10/08 10:01:04;;;;;;;4.80;4.30;;;17.10;99.90;;;;;;4907984;29;20469;-83
2021/10/08 10:03:32;;;;;;;5.47;4.47;;;17.10;99.90;;;;;;4907640;29;21024;-83
2021/10/08 10:06:01;;;;;;;5.37;4.73;;;17.10;99.90;;;;;;4909247;29;20464;-82
2021/10/08 10:08:29;;;;;;;5.13;4.63;;;17.10;99.90;;;;;;4906322;29;20473;-84
2021/10/08 10:10:59;;;;;;;5.53;4.47;;;17.00;99.90;;;;;;4906560;29;20849;-83
2021/10/08 10:13:32;;;;;;;6.50;4.37;;;17.10;99.90;;;;;;4906375;29;20472;-82
2021/10/08 10:16:02;;;;;;;5.73;4.80;;;17.10;99.90;;;;;;4900926;29;20464;-81
2021/10/08 10:18:30;;;;;;;5.00;3.87;;;17.00;99.90;;;;;;4908742;29;20485;-81
2021/10/08 10:20:59;;;;;;;6.07;5.10;;;17.00;99.90;;;;;;4902430;29;20476;-80
2021/10/08 10:23:29;;;;;;;5.40;4.40;;;16.90;99.90;;;;;;4904149;29;20536;-83
2021/10/08 10:25:58;;;;;;;7.23;4.53;;;16.90;99.90;;;;;;4907290;29;20528;-82
2021/10/08 10:28:26;;;;;;;5.33;4.40;;;17.00;99.90;;;;;;4907477;29;20478;-79
2021/10/08 10:30:55;;;;;;;6.90;4.87;;;17.00;99.90;;;;;;4902878;29;20497;-81
2021/10/08 10:33:29;;;;;;;5.23;4.73;;;16.90;99.90;;;;;;4902369;29;21041;-81
2021/10/08 10:36:00;;;;;;;5.20;4.70;;;16.90;99.90;;;;;;4919794;29;20478;-82
2021/10/08 10:38:37;;;;;;;4.50;4.10;;;16.80;99.90;;;;;;4902394;29;20498;-81
2021/10/08 10:41:24;;;;;;;4.80;3.93;;;16.90;99.90;;;;;;4901580;29;21043;-79
2021/10/08 10:44:12;;;;;;;3.90;3.40;;;17.00;99.90;;;;;;4899018;29;20489;-81
2021/10/08 10:46:45;;;;;;;4.77;4.33;;;17.10;99.90;;;;;;4903429;29;20553;-79
2021/10/08 10:52:27;;;;;;;5.33;4.83;;;17.10;99.90;;;;;;4898935;29;20459;-80
2021/10/08 10:55:17;;;;;;;4.10;3.70;;;17.10;99.90;;;;;;4904604;29;20475;-81
2021/10/08 10:58:07;;;;;;;6.43;4.87;;;17.10;99.90;;;;;;4895909;29;20456;-80
2021/10/08 11:00:44;;;;;;;5.77;4.93;;;17.10;99.90;;;;;;4895834;29;20466;-80
2021/10/08 11:03:23;;;;;;;6.78;4.32;;;17.10;99.90;;;;;;4904215;29;20458;-81
2021/10/08 11:06:18;;;;;;;7.83;6.20;;;17.40;99.90;;;;;;4905292;29;20534;-83
2021/10/08 11:09:15;;;;;;;7.43;4.77;;;17.30;99.90;;;;;;4901659;29;20456;-80
2021/10/08 11:11:43;;;;;;;5.90;4.30;;;17.30;99.90;;;;;;4899967;29;20486;-81
2021/10/08 11:14:19;;;;;;;4.70;4.27;;;17.30;99.90;;;;;;4904071;29;21029;-81
2021/10/08 11:16:48;;;;;;;5.20;4.37;;;17.30;99.90;;;;;;4906048;29;20466;-82
2021/10/08 11:19:40;;;;;;;4.97;4.00;;;17.40;99.90;;;;;;4905598;29;20962;-83
2021/10/08 11:22:10;;;;;;;5.87;5.37;;;17.40;99.90;;;;;;4907757;29;20876;-83
2021/10/08 11:24:39;;;;;;;5.03;4.40;;;17.40;99.90;;;;;;4898840;29;20479;-82
2021/10/08 11:27:07;;;;;;;5.30;4.80;;;17.40;99.90;;;;;;4909198;29;21105;-83
2021/10/08 11:29:38;;;;;;;6.03;5.17;;;17.50;99.90;;;;;;4891961;29;20497;-81
2021/10/08 11:32:11;;;;;;;5.90;3.80;;;17.40;99.90;;;;;;4900790;29;20527;-80
2021/10/08 11:34:49;;;;;;;5.67;4.73;;;17.40;99.90;;;;;;4902856;29;20910;-81
2021/10/08 11:37:19;;;;;;;6.43;5.10;;;17.30;99.90;;;;;;4904039;29;20895;-82
2021/10/08 11:39:49;;;;;;;5.43;4.23;;;17.30;99.90;;;;;;4903692;29;20606;-80
2021/10/08 11:42:20;;;;;;;4.43;4.03;;;17.30;99.90;;;;;;4907233;29;20547;-80
2021/10/08 11:44:58;;;;;;;6.07;4.37;;;17.30;99.90;;;;;;4901678;29;20480;-83
2021/10/08 11:47:31;;;;;;;7.07;4.67;;;17.30;99.90;;;;;;4903137;29;21361;-80
2021/10/08 11:50:13;;;;;;;6.57;5.90;;;17.30;99.90;;;;;;4904077;29;20446;-81
2021/10/08 11:52:44;;;;;;;5.60;4.03;;;17.30;99.90;;;;;;4918509;29;20207;-78
2021/10/08 11:55:16;;;;;;;7.87;4.57;;;17.30;99.90;;;;;;4904741;29;20483;-81
2021/10/08 11:57:58;;;;;;;5.03;4.53;;;17.30;99.90;;;;;;4901724;29;20527;-80
2021/10/08 12:00:34;;;;;;;6.60;5.60;;;17.30;99.90;;;;;;4904338;29;20496;-79
2021/10/08 12:03:06;;;;;;;6.47;4.53;;;17.20;99.90;;;;;;4907781;29;20453;-82
2021/10/08 12:05:47;;;;;;;8.95;5.60;;;17.20;99.90;;;;;;4903453;29;20466;-84
2021/10/08 12:08:18;;;;;;;5.33;4.20;;;17.30;99.90;;;;;;4901587;29;20211;-81
2021/10/08 12:11:01;;;;;;;6.40;4.90;;;17.30;99.90;;;;;;4898523;29;20525;-82
2021/10/08 12:13:42;;;;;;;5.40;4.90;;;17.30;99.90;;;;;;4898713;29;20456;-81
2021/10/08 12:16:12;;;;;;;7.57;4.20;;;17.20;99.90;;;;;;4903780;29;20597;-81
2021/10/08 12:18:52;;;;;;;6.20;5.55;;;17.20;99.90;;;;;;4902049;29;20914;-81
2021/10/08 12:21:29;;;;;;;6.37;5.50;;;17.20;99.90;;;;;;4905801;29;20672;-82
2021/10/08 12:24:00;;;;;;;5.70;4.87;;;17.10;99.90;;;;;;4896526;29;20965;-82
2021/10/08 12:26:30;;;;;;;5.90;4.67;;;17.20;99.90;;;;;;4895599;29;20711;-80
2021/10/08 12:29:00;;;;;;;4.53;4.13;;;17.10;99.90;;;;;;4904351;29;20463;-82
2021/10/08 12:31:49;;;;;;;6.93;4.63;;;17.20;99.90;;;;;;4899463;29;20496;-81
2021/10/08 12:34:33;;;;;;;8.23;4.90;;;17.20;99.90;;;;;;4899293;29;20544;-82
2021/10/08 12:37:03;;;;;;;6.83;5.60;;;17.20;99.90;;;;;;4903094;29;20473;-79
2021/10/08 12:39:40;;;;;;;6.17;3.80;;;17.20;99.90;;;;;;4896409;29;21194;-82
2021/10/08 12:42:14;;;;;;;4.73;4.27;;;17.30;99.90;;;;;;4898791;29;20451;-82
2021/10/08 12:44:51;;;;;;;6.10;4.20;;;17.30;99.90;;;;;;4900603;29;20487;-80
2021/10/08 12:47:25;;;;;;;6.40;5.80;;;17.30;99.90;;;;;;4902549;29;21121;-80
2021/10/08 12:49:55;;;;;;;7.67;4.80;;;17.30;99.90;;;;;;4900132;29;20593;-80
2021/10/08 12:52:38;;;;;;;10.60;6.30;;;17.40;99.90;;;;;;4900600;29;20998;-81
2021/10/08 12:55:11;;;;;;;16.93;9.13;;;17.40;99.90;;;;;;4904240;29;20499;-83
2021/10/08 12:57:59;;;;;;;7.50;5.50;;;17.50;99.90;;;;;;4894750;29;20471;-80
2021/10/08 13:00:39;;;;;;;7.00;4.77;;;17.60;99.90;;;;;;4905974;29;20463;-79
2021/10/08 13:03:28;;;;;;;4.70;4.20;;;17.50;99.90;;;;;;4908599;29;20862;-82
2021/10/08 13:05:56;;;;;;;5.90;4.70;;;17.50;99.90;;;;;;4901338;29;20456;-81
2021/10/08 13:08:26;;;;;;;5.33;4.60;;;17.60;99.90;;;;;;4904042;29;20451;-79